Time;durP1;ratioP1;P1;durP2;ratioP2;P2;SDS_P1;SDS_P2;PMS_P1;PMS_P2;Temp;Humidity;BMP_temperature;BMP_pressure;BME280_temperature;BME280_humidity;BME280_pressure;Samples;Min_cycle;Max_cycle;Signal;HPM_P1;HPM_P2
2021/01/06 05:01:35;;;;;;;5.28;4.38;;;2.90;99.90;;;;;;5483590;23;20294;-71
2021/01/06 05:04:14;;;;;;;7.28;4.72;;;2.90;99.90;;;;;;4891105;29;20219;-69
2021/01/06 05:06:56;;;;;;;8.25;4.55;;;2.90;99.90;;;;;;4884487;29;20216;-70
2021/01/06 05:09:25;;;;;;;4.43;4.03;;;2.90;99.90;;;;;;4897631;29;20266;-70
2021/01/06 05:12:02;;;;;;;5.05;4.15;;;2.90;99.90;;;;;;4884052;29;20223;-70
2021/01/06 05:14:33;;;;;;;5.00;4.35;;;2.90;99.90;;;;;;4881383;29;20670;-70
2021/01/06 05:17:00;;;;;;;5.72;5.20;;;2.90;99.90;;;;;;4889084;29;20207;-71
2021/01/06 05:19:32;;;;;;;6.80;5.00;;;2.90;99.90;;;;;;4880164;29;20238;-70
2021/01/06 05:21:59;;;;;;;5.00;4.38;;;2.90;99.90;;;;;;4881524;29;20228;-70
2021/01/06 05:24:33;;;;;;;7.18;5.00;;;2.90;99.90;;;;;;4878711;29;20212;-71
2021/01/06 05:27:22;;;;;;;5.30;4.45;;;2.90;99.90;;;;;;4883749;29;20688;-69
2021/01/06 05:29:51;;;;;;;5.38;4.78;;;2.90;99.90;;;;;;4881192;29;20268;-70
2021/01/06 05:32:21;;;;;;;5.40;4.90;;;2.90;99.90;;;;;;4881690;29;20231;-72
2021/01/06 05:34:50;;;;;;;4.72;4.25;;;2.90;99.90;;;;;;4879006;29;20204;-70
2021/01/06 05:37:19;;;;;;;7.10;4.93;;;2.90;99.90;;;;;;4894036;29;20599;-69
2021/01/06 05:39:46;;;;;;;6.03;3.63;;;2.90;99.90;;;;;;4896176;29;20218;-71
2021/01/06 05:42:15;;;;;;;5.72;4.95;;;2.90;99.90;;;;;;4882645;29;20232;-70
2021/01/06 05:44:42;;;;;;;6.15;4.75;;;2.80;99.90;;;;;;4895988;29;20676;-70
2021/01/06 05:47:21;;;;;;;6.10;4.75;;;2.80;99.90;;;;;;4880479;29;20211;-70
2021/01/06 05:49:48;;;;;;;7.28;5.47;;;2.90;99.90;;;;;;4896062;29;20207;-70
2021/01/06 05:52:16;;;;;;;8.38;4.90;;;2.80;99.90;;;;;;4880000;29;20239;-70
2021/01/06 05:54:47;;;;;;;6.85;5.25;;;2.90;99.90;;;;;;4879953;29;20239;-71
2021/01/06 05:57:23;;;;;;;6.45;4.35;;;2.90;99.90;;;;;;4894828;29;20305;-70
2021/01/06 06:00:11;;;;;;;6.10;5.60;;;2.90;99.90;;;;;;4880542;29;20244;-70
2021/01/06 06:02:45;;;;;;;6.45;4.85;;;2.90;99.90;;;;;;4881701;29;20231;-70
2021/01/06 06:05:40;;;;;;;4.95;4.45;;;2.80;99.90;;;;;;4887519;29;20225;-70
2021/01/06 06:08:39;;;;;;;12.20;5.28;;;2.80;99.90;;;;;;4878268;29;20680;-70
2021/01/06 06:11:41;;;;;;;5.35;4.43;;;2.80;99.90;;;;;;4880872;29;20227;-70
2021/01/06 06:14:52;;;;;;;4.72;3.83;;;2.80;99.90;;;;;;4896987;29;20229;-70
2021/01/06 06:17:29;;;;;;;6.35;5.45;;;2.80;99.90;;;;;;4891641;29;20361;-70
2021/01/06 06:20:19;;;;;;;5.88;4.68;;;2.80;99.90;;;;;;4896079;29;20688;-70
2021/01/06 06:22:56;;;;;;;6.40;5.45;;;2.80;99.90;;;;;;4896821;29;20656;-70
2021/01/06 06:25:25;;;;;;;5.25;4.80;;;2.80;99.90;;;;;;4889088;29;20211;-71
2021/01/06 06:28:15;;;;;;;4.88;4.43;;;2.80;99.90;;;;;;4897698;29;20698;-70
2021/01/06 06:30:53;;;;;;;8.32;5.50;;;2.80;99.90;;;;;;4890909;29;20228;-70
2021/01/06 06:33:26;;;;;;;5.65;5.18;;;2.80;99.90;;;;;;4899633;29;20294;-69
2021/01/06 06:35:55;;;;;;;5.70;5.10;;;2.80;99.90;;;;;;4893744;29;20290;-69
2021/01/06 06:38:35;;;;;;;8.93;5.95;;;2.80;99.90;;;;;;4877742;29;20211;-70
2021/01/06 06:41:04;;;;;;;6.35;4.63;;;2.80;99.90;;;;;;4883828;29;20235;-70
2021/01/06 06:43:38;;;;;;;5.07;4.35;;;2.70;99.90;;;;;;4883209;29;20239;-70
2021/01/06 06:46:17;;;;;;;6.00;5.55;;;2.70;99.90;;;;;;4892285;29;20208;-69
2021/01/06 06:48:59;;;;;;;10.60;4.95;;;2.70;99.90;;;;;;4882411;29;20204;-70
2021/01/06 06:51:30;;;;;;;6.88;5.18;;;2.70;99.90;;;;;;4894370;29;20227;-69
2021/01/06 06:54:02;;;;;;;4.93;4.53;;;2.60;99.90;;;;;;4896371;29;20211;-75
2021/01/06 06:56:36;;;;;;;5.45;4.60;;;2.60;99.90;;;;;;4893542;29;20227;-75
2021/01/06 06:59:07;;;;;;;6.40;4.93;;;2.50;99.90;;;;;;4882943;29;20215;-75
2021/01/06 07:01:35;;;;;;;6.47;5.55;;;2.50;99.90;;;;;;4887766;29;20227;-75
2021/01/06 07:04:06;;;;;;;4.75;4.35;;;2.50;99.90;;;;;;4891936;29;20204;-75
2021/01/06 07:06:34;;;;;;;5.55;5.05;;;2.40;99.90;;;;;;4887848;29;20553;-72
2021/01/06 07:09:03;;;;;;;5.25;4.80;;;2.40;99.90;;;;;;4885693;29;20275;-72
2021/01/06 07:11:33;;;;;;;5.57;5.07;;;2.40;99.90;;;;;;4886183;29;20228;-71
2021/01/06 07:14:04;;;;;;;8.00;5.68;;;2.40;99.90;;;;;;4887055;29;20204;-71
2021/01/06 07:16:35;;;;;;;5.95;5.28;;;2.30;99.90;;;;;;4886512;29;20208;-71
2021/01/06 07:19:23;;;;;;;10.98;5.68;;;2.30;99.90;;;;;;4886995;29;20577;-71
2021/01/06 07:21:56;;;;;;;11.35;6.00;;;2.30;99.90;;;;;;4883156;29;20240;-70
2021/01/06 07:24:25;;;;;;;7.10;5.53;;;2.30;99.90;;;;;;4899187;29;20223;-68
2021/01/06 07:26:54;;;;;;;6.00;4.90;;;2.20;99.90;;;;;;4898436;29;20211;-68
2021/01/06 07:29:23;;;;;;;7.40;5.30;;;2.20;99.90;;;;;;4899386;29;20226;-68
2021/01/06 07:31:58;;;;;;;6.95;5.32;;;2.20;99.90;;;;;;4898908;29;20291;-68
2021/01/06 07:34:39;;;;;;;7.43;5.53;;;2.20;99.90;;;;;;4899069;29;20234;-68
2021/01/06 07:37:22;;;;;;;6.78;5.38;;;2.10;99.90;;;;;;4894136;29;20211;-70
2021/01/06 07:39:58;;;;;;;9.57;5.82;;;2.10;99.90;;;;;;4880668;29;20710;-70
2021/01/06 07:42:37;;;;;;;6.53;5.85;;;2.10;99.90;;;;;;4896789;29;20230;-69
2021/01/06 07:45:34;;;;;;;7.07;6.03;;;2.10;99.90;;;;;;4892014;29;20211;-68
2021/01/06 07:48:07;;;;;;;7.97;6.00;;;2.10;99.90;;;;;;4889750;29;20204;-68
2021/01/06 07:50:35;;;;;;;5.13;4.35;;;2.10;99.90;;;;;;4887850;29;20231;-71
2021/01/06 07:53:08;;;;;;;10.95;7.03;;;2.10;99.90;;;;;;4879477;29;20890;-70
2021/01/06 07:55:39;;;;;;;7.18;6.30;;;2.10;99.90;;;;;;4889979;29;20203;-72
2021/01/06 07:58:11;;;;;;;5.97;5.35;;;2.10;99.90;;;;;;4899023;29;20215;-72
2021/01/06 08:00:41;;;;;;;7.80;5.90;;;2.10;99.90;;;;;;4891888;29;20246;-68
2021/01/06 08:03:22;;;;;;;6.68;6.07;;;2.00;99.90;;;;;;4897955;29;20241;-71
2021/01/06 08:05:56;;;;;;;7.15;6.00;;;2.00;99.90;;;;;;4893470;29;20207;-71
2021/01/06 08:08:26;;;;;;;7.90;5.75;;;2.00;99.90;;;;;;4899254;29;20222;-72
2021/01/06 08:11:05;;;;;;;6.60;6.00;;;2.00;99.90;;;;;;4889009;29;20290;-71
2021/01/06 08:13:33;;;;;;;8.73;5.97;;;2.00;99.90;;;;;;4897886;29;20291;-71
2021/01/06 08:16:15;;;;;;;5.32;4.63;;;2.00;99.90;;;;;;4887177;29;20220;-70
2021/01/06 08:19:01;;;;;;;6.57;4.68;;;2.00;99.90;;;;;;4880314;29;20279;-71
2021/01/06 08:21:30;;;;;;;7.88;5.07;;;2.00;99.90;;;;;;4883286;29;20605;-71
2021/01/06 08:24:08;;;;;;;7.82;4.22;;;1.90;99.90;;;;;;4881798;29;20204;-71
2021/01/06 08:26:35;;;;;;;7.80;5.15;;;1.90;99.90;;;;;;4888198;29;20215;-72
2021/01/06 08:29:11;;;;;;;5.43;4.95;;;1.90;99.90;;;;;;4895701;29;20236;-72
2021/01/06 08:31:38;;;;;;;9.98;5.30;;;1.90;99.90;;;;;;4898106;29;20730;-69
2021/01/06 08:34:06;;;;;;;6.45;5.00;;;1.90;99.90;;;;;;4895605;29;20256;-71
2021/01/06 08:36:35;;;;;;;6.18;5.53;;;1.90;99.90;;;;;;4897604;29;20211;-72
2021/01/06 08:39:16;;;;;;;5.60;4.43;;;1.90;99.90;;;;;;4895262;29;20256;-71
2021/01/06 08:41:43;;;;;;;7.22;4.70;;;1.90;99.90;;;;;;4897897;29;20231;-72
2021/01/06 08:44:29;;;;;;;5.68;4.45;;;1.90;99.90;;;;;;4892197;29;20208;-72
2021/01/06 08:46:57;;;;;;;5.65;4.95;;;1.90;99.90;;;;;;4880613;29;20716;-72
2021/01/06 08:49:27;;;;;;;6.00;4.85;;;1.90;99.90;;;;;;4886665;29;20656;-69
2021/01/06 08:51:55;;;;;;;6.72;5.97;;;1.90;99.90;;;;;;4893619;29;20306;-68
2021/01/06 08:54:31;;;;;;;5.68;4.47;;;1.90;99.90;;;;;;4879547;29;20649;-68
2021/01/06 08:57:03;;;;;;;7.72;4.82;;;2.00;99.90;;;;;;4898185;29;20291;-69
2021/01/06 08:59:34;;;;;;;7.28;5.07;;;2.00;99.90;;;;;;4895372;29;20207;-68
2021/01/06 09:02:00;;;;;;;5.40;4.97;;;2.00;99.90;;;;;;4903730;29;20234;-68
2021/01/06 09:04:37;;;;;;;6.78;4.90;;;2.00;99.90;;;;;;4900323;29;20215;-69
2021/01/06 09:07:14;;;;;;;7.95;5.32;;;2.00;99.90;;;;;;4896759;29;20222;-68
2021/01/06 09:09:56;;;;;;;5.53;4.30;;;2.10;99.90;;;;;;4893304;29;20215;-68
2021/01/06 09:12:27;;;;;;;5.53;4.18;;;2.10;99.90;;;;;;4889034;29;20226;-68
2021/01/06 09:14:57;;;;;;;6.93;5.05;;;2.10;99.90;;;;;;4886752;29;20216;-69
2021/01/06 09:17:35;;;;;;;8.15;6.10;;;2.10;99.90;;;;;;4890618;29;20731;-68
2021/01/06 09:20:07;;;;;;;4.50;2.53;;;2.10;99.90;;;;;;4880015;29;20200;-68
2021/01/06 09:22:33;;;;;;;7.32;4.90;;;2.10;99.90;;;;;;4885978;29;20223;-68
2021/01/06 09:25:00;;;;;;;6.25;4.57;;;2.10;99.90;;;;;;4895493;29;20843;-68
2021/01/06 09:27:35;;;;;;;4.72;4.05;;;2.10;99.90;;;;;;4890252;29;20204;-68
2021/01/06 09:30:06;;;;;;;5.20;4.70;;;2.10;99.90;;;;;;4894535;29;20207;-68
2021/01/06 09:32:35;;;;;;;5.57;4.95;;;2.10;99.90;;;;;;4882234;29;20637;-69
2021/01/06 09:35:06;;;;;;;4.68;4.32;;;2.10;99.90;;;;;;4895606;29;20204;-68
2021/01/06 09:37:36;;;;;;;4.95;4.50;;;2.10;99.90;;;;;;4885893;29;20263;-69
2021/01/06 09:40:09;;;;;;;5.00;4.60;;;2.10;99.90;;;;;;4896270;29;20255;-68
2021/01/06 09:42:37;;;;;;;5.70;4.28;;;2.10;99.90;;;;;;4895826;29;20290;-68
2021/01/06 09:45:05;;;;;;;6.57;5.07;;;2.10;99.90;;;;;;4896586;29;20203;-69
2021/01/06 09:47:35;;;;;;;5.88;4.85;;;2.10;99.90;;;;;;4884153;29;20204;-70
2021/01/06 09:50:14;;;;;;;6.30;4.80;;;2.20;99.90;;;;;;4882152;29;20211;-69
2021/01/06 09:52:44;;;;;;;9.27;6.03;;;2.20;99.90;;;;;;4897331;29;20259;-69
2021/01/06 09:55:15;;;;;;;6.03;5.25;;;2.20;99.90;;;;;;4891936;29;20231;-68
2021/01/06 09:57:43;;;;;;;5.18;4.68;;;2.20;99.90;;;;;;4896072;29;20219;-69
2021/01/06 10:00:26;;;;;;;5.38;4.45;;;2.20;99.90;;;;;;4892033;29;20218;-68
2021/01/06 10:02:53;;;;;;;4.65;4.18;;;2.30;99.90;;;;;;4878277;29;20231;-71
2021/01/06 10:05:36;;;;;;;4.72;4.30;;;2.30;99.90;;;;;;4894838;29;20211;-72
2021/01/06 10:08:19;;;;;;;5.10;4.60;;;2.30;99.90;;;;;;4896823;29;20214;-70
2021/01/06 10:10:49;;;;;;;4.80;4.40;;;2.30;99.90;;;;;;4877371;29;20259;-68
2021/01/06 10:13:27;;;;;;;5.75;4.30;;;2.30;99.90;;;;;;4893790;29;20210;-69
2021/01/06 10:16:01;;;;;;;4.50;4.10;;;2.40;99.90;;;;;;4886698;29;20350;-69
2021/01/06 10:18:50;;;;;;;4.20;3.53;;;2.50;99.90;;;;;;4890726;29;20211;-69
2021/01/06 10:21:22;;;;;;;4.53;4.15;;;2.40;99.90;;;;;;4888030;29;20525;-69
2021/01/06 10:24:11;;;;;;;3.78;3.58;;;2.40;99.90;;;;;;4895973;29;20620;-69
2021/01/06 10:26:50;;;;;;;5.22;4.32;;;2.40;99.90;;;;;;4879663;29;20661;-70
2021/01/06 10:29:21;;;;;;;6.95;4.30;;;2.40;99.90;;;;;;4890763;29;20210;-69
2021/01/06 10:32:00;;;;;;;4.65;4.20;;;2.40;99.90;;;;;;4878744;29;20223;-69
2021/01/06 10:34:33;;;;;;;4.88;4.47;;;2.40;99.90;;;;;;4877885;29;20215;-69
2021/01/06 10:37:20;;;;;;;5.15;4.55;;;2.40;99.90;;;;;;4895462;29;20291;-70
2021/01/06 10:39:48;;;;;;;4.00;3.72;;;2.40;99.90;;;;;;4888639;29;20206;-69
2021/01/06 10:42:35;;;;;;;6.13;4.40;;;2.40;99.90;;;;;;4896450;29;20239;-69
2021/01/06 10:45:07;;;;;;;5.35;4.68;;;2.40;99.90;;;;;;4882921;29;20575;-69
2021/01/06 10:47:46;;;;;;;5.10;4.53;;;2.40;99.90;;;;;;4881576;29;20204;-69
2021/01/06 10:50:44;;;;;;;4.03;3.72;;;2.40;99.90;;;;;;4890113;29;20648;-70
2021/01/06 10:53:18;;;;;;;8.07;4.05;;;2.40;99.90;;;;;;4886524;29;20222;-69
2021/01/06 10:55:51;;;;;;;5.22;4.80;;;2.40;99.90;;;;;;4887145;29;20278;-69
2021/01/06 10:58:40;;;;;;;4.30;4.00;;;2.50;99.90;;;;;;4885847;29;20227;-69
2021/01/06 11:01:22;;;;;;;3.47;3.17;;;2.50;99.90;;;;;;4887689;29;20307;-69
2021/01/06 11:04:07;;;;;;;4.80;4.40;;;2.50;99.90;;;;;;4885340;29;20208;-68
2021/01/06 11:06:37;;;;;;;3.67;3.22;;;2.50;99.90;;;;;;4886004;29;20203;-68
2021/01/06 11:09:33;;;;;;;3.80;3.45;;;2.50;99.90;;;;;;4899077;29;20207;-68
2021/01/06 11:12:17;;;;;;;2.90;2.70;;;2.50;99.90;;;;;;4888361;29;20220;-69
2021/01/06 11:15:11;;;;;;;4.13;3.67;;;2.50;99.90;;;;;;4895650;29;20234;-68
2021/01/06 11:17:40;;;;;;;4.65;4.32;;;2.40;99.90;;;;;;4892844;29;20618;-68
2021/01/06 11:20:26;;;;;;;5.40;3.65;;;2.40;99.90;;;;;;4894734;29;20633;-68
2021/01/06 11:23:21;;;;;;;4.30;3.90;;;2.40;99.90;;;;;;4899715;29;20241;-68
2021/01/06 11:25:50;;;;;;;3.63;3.30;;;2.50;99.90;;;;;;4893331;29;20204;-68
2021/01/06 11:28:31;;;;;;;4.28;3.88;;;2.50;99.90;;;;;;4899538;29;20215;-69
2021/01/06 11:31:17;;;;;;;4.88;4.47;;;2.50;99.90;;;;;;4884601;29;20247;-68
2021/01/06 11:33:44;;;;;;;3.15;2.95;;;2.50;99.90;;;;;;4885739;29;20203;-68
2021/01/06 11:36:36;;;;;;;5.88;4.70;;;2.50;99.90;;;;;;4897685;29;20211;-68
2021/01/06 11:39:05;;;;;;;3.55;3.33;;;2.50;99.90;;;;;;4896728;29;20199;-68
2021/01/06 11:42:02;;;;;;;5.03;4.47;;;2.50;99.90;;;;;;4893120;29;20295;-68
2021/01/06 11:44:36;;;;;;;4.45;3.65;;;2.60;99.90;;;;;;4880593;29;20215;-68
2021/01/06 11:47:20;;;;;;;3.78;3.47;;;2.60;99.90;;;;;;4888669;29;20275;-68
2021/01/06 11:49:53;;;;;;;3.88;3.58;;;2.60;99.90;;;;;;4880220;29;20227;-68
2021/01/06 11:52:31;;;;;;;4.70;4.30;;;2.60;99.90;;;;;;4892124;29;20226;-68
2021/01/06 11:55:08;;;;;;;5.53;3.60;;;2.60;99.90;;;;;;4887002;29;20208;-68
2021/01/06 11:57:46;;;;;;;3.22;3.13;;;2.70;99.90;;;;;;4882306;29;20744;-69
2021/01/06 12:00:41;;;;;;;3.85;3.47;;;2.70;99.90;;;;;;4885888;29;20691;-69
2021/01/06 12:03:28;;;;;;;4.82;3.88;;;2.70;99.90;;;;;;4865588;29;20287;-69
2021/01/06 12:06:06;;;;;;;3.80;3.60;;;2.70;99.90;;;;;;4886209;29;20212;-69
2021/01/06 12:08:49;;;;;;;5.18;4.78;;;2.80;99.90;;;;;;4896561;29;20223;-69
2021/01/06 12:11:26;;;;;;;4.90;4.07;;;2.70;99.90;;;;;;4896635;29;20703;-69
2021/01/06 12:14:05;;;;;;;5.10;4.10;;;2.80;99.90;;;;;;4890180;29;20199;-69
2021/01/06 12:16:42;;;;;;;5.43;4.32;;;2.80;99.90;;;;;;4897010;29;20210;-69
2021/01/06 12:19:23;;;;;;;4.32;4.05;;;2.80;99.90;;;;;;4898562;29;20300;-69
2021/01/06 12:22:08;;;;;;;4.80;4.50;;;2.80;99.90;;;;;;4879545;29;20245;-69
2021/01/06 12:24:47;;;;;;;4.63;4.13;;;2.80;99.90;;;;;;4886700;29;20283;-69
2021/01/06 12:27:36;;;;;;;4.00;3.70;;;2.80;99.90;;;;;;4880930;29;20687;-69
2021/01/06 12:30:22;;;;;;;3.30;3.08;;;2.80;99.90;;;;;;4879712;29;20575;-69
2021/01/06 12:32:53;;;;;;;4.40;4.05;;;2.70;99.90;;;;;;4880176;29;20584;-70
2021/01/06 12:35:27;;;;;;;4.35;3.95;;;2.70;99.90;;;;;;4897530;29;20687;-69
2021/01/06 12:38:03;;;;;;;4.45;4.15;;;2.70;99.90;;;;;;4897965;29;20230;-69
2021/01/06 12:40:29;;;;;;;3.60;3.40;;;2.70;99.90;;;;;;4879123;29;20228;-69
2021/01/06 12:42:59;;;;;;;3.80;3.58;;;2.70;99.90;;;;;;4898002;29;20696;-69
2021/01/06 12:45:29;;;;;;;4.85;4.22;;;2.70;99.90;;;;;;4898363;29;20215;-70
2021/01/06 12:48:08;;;;;;;3.45;3.25;;;2.70;99.90;;;;;;4897803;29;20217;-69
2021/01/06 12:50:48;;;;;;;3.97;3.78;;;2.70;99.90;;;;;;4897137;29;20227;-69
2021/01/06 12:53:18;;;;;;;3.88;3.60;;;2.70;99.90;;;;;;4897297;29;20605;-69
2021/01/06 12:55:51;;;;;;;3.92;2.97;;;2.60;99.90;;;;;;4895910;29;20755;-69
2021/01/06 12:58:21;;;;;;;3.65;3.35;;;2.60;99.90;;;;;;4879825;29;20223;-69
2021/01/06 13:00:59;;;;;;;4.07;3.85;;;2.70;99.90;;;;;;4891409;29;20575;-69
2021/01/06 13:03:34;;;;;;;3.15;2.92;;;2.60;99.90;;;;;;4897775;29;20238;-69
2021/01/06 13:06:13;;;;;;;5.28;3.85;;;2.60;99.90;;;;;;4889697;29;20763;-69
2021/01/06 13:08:49;;;;;;;5.40;4.25;;;2.60;99.90;;;;;;4885502;29;20575;-68
2021/01/06 13:11:20;;;;;;;4.07;3.88;;;2.60;99.90;;;;;;4878810;29;20751;-69
2021/01/06 13:13:47;;;;;;;6.53;6.00;;;2.60;99.90;;;;;;4891483;29;20199;-68
2021/01/06 13:16:28;;;;;;;5.05;4.65;;;2.60;99.90;;;;;;4897531;29;20207;-69
2021/01/06 13:19:18;;;;;;;5.78;4.95;;;2.60;99.90;;;;;;4883743;29;20358;-69
2021/01/06 13:22:12;;;;;;;6.40;5.07;;;2.60;99.90;;;;;;4886028;29;20380;-68
2021/01/06 13:24:41;;;;;;;5.10;4.75;;;2.60;99.90;;;;;;4874606;29;20212;-68
2021/01/06 13:27:07;;;;;;;7.03;6.35;;;2.70;99.90;;;;;;4890651;29;20572;-68
2021/01/06 13:29:38;;;;;;;5.35;4.95;;;2.70;99.90;;;;;;4883266;29;20212;-68
2021/01/06 13:32:34;;;;;;;4.88;4.50;;;2.70;99.90;;;;;;4890399;29;20239;-69
2021/01/06 13:35:01;;;;;;;4.97;4.55;;;2.70;99.90;;;;;;4900681;29;20211;-68
2021/01/06 13:37:32;;;;;;;6.55;5.95;;;2.70;99.90;;;;;;4887973;29;20215;-72
2021/01/06 13:40:16;;;;;;;5.47;4.75;;;2.70;99.90;;;;;;4895142;29;20225;-70
2021/01/06 13:43:00;;;;;;;5.50;5.10;;;2.70;99.90;;;;;;4898032;29;20234;-72
2021/01/06 13:45:40;;;;;;;4.55;4.25;;;2.70;99.90;;;;;;4881547;29;20230;-72
2021/01/06 13:48:16;;;;;;;7.78;5.40;;;2.70;99.90;;;;;;4890797;29;20553;-71
2021/01/06 13:50:48;;;;;;;6.30;5.70;;;2.70;99.90;;;;;;4899663;29;20365;-72
2021/01/06 13:53:27;;;;;;;5.82;5.22;;;2.70;99.90;;;;;;4885106;29;20220;-71
2021/01/06 13:56:00;;;;;;;4.57;4.30;;;2.70;99.90;;;;;;4885929;29;20664;-72
2021/01/06 13:58:35;;;;;;;4.63;4.30;;;2.70;99.90;;;;;;4884356;29;20208;-72
2021/01/06 14:01:32;;;;;;;5.75;5.25;;;2.60;99.90;;;;;;4879916;29;20295;-72
2021/01/06 14:04:04;;;;;;;4.88;4.47;;;2.70;99.90;;;;;;4891796;29;20224;-71
2021/01/06 14:06:31;;;;;;;5.32;4.93;;;2.60;99.90;;;;;;4885751;29;20204;-72
2021/01/06 14:09:21;;;;;;;5.63;5.13;;;2.60;99.90;;;;;;4882957;29;20212;-71
2021/01/06 14:12:13;;;;;;;5.97;4.68;;;2.60;99.90;;;;;;4888730;29;20259;-72
2021/01/06 14:14:45;;;;;;;5.68;5.28;;;2.60;99.90;;;;;;4885864;29;20252;-72
2021/01/06 14:17:41;;;;;;;4.60;4.28;;;2.60;99.90;;;;;;4904967;29;20219;-72
2021/01/06 14:20:33;;;;;;;3.30;3.00;;;2.60;99.90;;;;;;4887487;29;20212;-74
2021/01/06 14:23:14;;;;;;;5.85;5.20;;;2.50;99.90;;;;;;4900646;29;20223;-71
2021/01/06 14:25:57;;;;;;;5.22;4.82;;;2.50;99.90;;;;;;4902699;29;20238;-73
2021/01/06 14:28:30;;;;;;;4.72;4.40;;;2.50;99.90;;;;;;4899382;29;20676;-72
2021/01/06 14:31:04;;;;;;;5.00;4.65;;;2.50;99.90;;;;;;4885157;29;20695;-73
2021/01/06 14:33:43;;;;;;;5.25;4.75;;;2.50;99.90;;;;;;4887282;29;20203;-73
2021/01/06 14:36:26;;;;;;;4.90;4.60;;;2.40;99.90;;;;;;4882906;29;20211;-73
2021/01/06 14:38:57;;;;;;;5.00;4.70;;;2.40;99.90;;;;;;4893689;29;20214;-73
2021/01/06 14:41:36;;;;;;;7.30;6.70;;;2.40;99.90;;;;;;4899136;29;20262;-72
2021/01/06 14:44:20;;;;;;;4.97;4.63;;;2.40;99.90;;;;;;4913961;29;20238;-72
2021/01/06 14:47:03;;;;;;;5.97;5.57;;;2.40;99.90;;;;;;4920734;29;20210;-72
2021/01/06 14:49:34;;;;;;;6.03;5.57;;;2.40;99.90;;;;;;4919005;29;20291;-71
2021/01/06 14:52:13;;;;;;;5.32;4.90;;;2.40;99.90;;;;;;4901493;29;20238;-71
2021/01/06 14:54:53;;;;;;;6.40;5.50;;;2.40;99.90;;;;;;4909216;29;20211;-69
2021/01/06 14:57:37;;;;;;;5.68;5.15;;;2.30;99.90;;;;;;4911622;29;20215;-72
2021/01/06 15:00:31;;;;;;;5.47;5.07;;;2.30;99.90;;;;;;4905915;29;20215;-74
2021/01/06 15:03:18;;;;;;;6.45;5.68;;;2.30;99.90;;;;;;4902634;29;20291;-73
2021/01/06 15:05:47;;;;;;;6.28;5.68;;;2.30;99.90;;;;;;4902614;29;20295;-73
2021/01/06 15:08:22;;;;;;;6.25;5.65;;;2.30;99.90;;;;;;4902664;29;20211;-73
2021/01/06 15:11:11;;;;;;;6.72;5.50;;;2.30;99.90;;;;;;4900107;29;20231;-74
2021/01/06 15:13:41;;;;;;;7.13;6.53;;;2.30;99.90;;;;;;4899814;29;20215;-68
2021/01/06 15:16:10;;;;;;;7.50;6.75;;;2.30;99.90;;;;;;4900315;29;20533;-67
2021/01/06 15:18:37;;;;;;;6.25;5.65;;;2.30;99.90;;;;;;4900671;29;20236;-67
2021/01/06 15:21:13;;;;;;;7.57;6.88;;;2.30;99.90;;;;;;4895788;29;20330;-68
2021/01/06 15:23:43;;;;;;;7.25;6.53;;;2.30;99.90;;;;;;4890181;29;20242;-68
2021/01/06 15:26:19;;;;;;;5.78;5.35;;;2.20;99.90;;;;;;4883656;29;20204;-67
2021/01/06 15:28:50;;;;;;;4.95;4.55;;;2.20;99.90;;;;;;4900806;29;20215;-67
2021/01/06 15:31:21;;;;;;;7.78;6.50;;;2.20;99.90;;;;;;4887199;29;20239;-67
2021/01/06 15:33:55;;;;;;;7.43;6.60;;;2.20;99.90;;;;;;4890464;29;20226;-69
2021/01/06 15:36:25;;;;;;;8.23;7.43;;;2.20;99.90;;;;;;4899780;29;20229;-69
2021/01/06 15:38:57;;;;;;;6.97;5.45;;;2.20;99.90;;;;;;4894033;29;20268;-69
2021/01/06 15:41:27;;;;;;;9.80;7.72;;;2.20;99.90;;;;;;4894720;29;20292;-69
2021/01/06 15:43:56;;;;;;;8.05;7.30;;;2.20;99.90;;;;;;4896457;29;20246;-69
2021/01/06 15:46:25;;;;;;;7.57;6.88;;;2.20;99.90;;;;;;4891618;29;20212;-67
2021/01/06 15:48:58;;;;;;;6.88;6.32;;;2.30;99.90;;;;;;4888659;29;20739;-68
2021/01/06 15:51:27;;;;;;;8.13;6.75;;;2.30;99.90;;;;;;4893393;29;20287;-69
2021/01/06 15:53:59;;;;;;;10.80;7.45;;;2.30;99.90;;;;;;4890954;29;20216;-70
2021/01/06 15:56:30;;;;;;;8.25;7.40;;;2.20;99.90;;;;;;4899018;29;20219;-69
2021/01/06 15:59:00;;;;;;;8.75;7.88;;;2.20;99.90;;;;;;4899572;29;20219;-70
2021/01/06 16:01:29;;;;;;;7.68;6.80;;;2.10;99.90;;;;;;4899287;29;20700;-70
2021/01/06 16:03:58;;;;;;;8.02;7.22;;;2.10;99.90;;;;;;4899464;29;20242;-70
2021/01/06 16:06:45;;;;;;;8.07;7.28;;;2.10;99.90;;;;;;4899786;29;20219;-70
2021/01/06 16:09:12;;;;;;;8.23;7.13;;;2.10;99.90;;;;;;4898865;29;20211;-70
2021/01/06 16:11:39;;;;;;;8.07;7.15;;;2.10;99.90;;;;;;4898287;29;20314;-70
2021/01/06 16:14:13;;;;;;;7.90;6.40;;;2.10;99.90;;;;;;4899190;29;20328;-70
2021/01/06 16:16:43;;;;;;;7.65;6.95;;;2.10;99.90;;;;;;4899588;29;20627;-70
2021/01/06 16:19:14;;;;;;;8.60;7.82;;;2.00;99.90;;;;;;4899515;29;20211;-70
2021/01/06 16:21:42;;;;;;;8.32;7.10;;;2.00;99.90;;;;;;4899027;29;20642;-70
2021/01/06 16:24:19;;;;;;;6.80;6.15;;;2.00;99.90;;;;;;4898709;29;20235;-70
2021/01/06 16:26:51;;;;;;;7.53;6.72;;;2.00;99.90;;;;;;4898985;29;20238;-70
2021/01/06 16:29:26;;;;;;;6.50;5.88;;;2.00;99.90;;;;;;4898742;29;20636;-70
2021/01/06 16:32:09;;;;;;;9.40;7.28;;;2.00;99.90;;;;;;4897874;29;20226;-70
2021/01/06 16:34:36;;;;;;;10.93;6.85;;;2.00;99.90;;;;;;4896214;29;20207;-71
2021/01/06 16:37:04;;;;;;;9.52;7.30;;;2.00;99.90;;;;;;4898929;29;20218;-70
2021/01/06 16:39:30;;;;;;;10.25;7.68;;;2.00;99.90;;;;;;4895408;29;20616;-69
2021/01/06 16:41:58;;;;;;;8.32;6.80;;;2.00;99.90;;;;;;4894024;29;20223;-70
2021/01/06 16:44:28;;;;;;;7.13;6.43;;;1.90;99.90;;;;;;4896720;29;20230;-71
2021/01/06 16:47:03;;;;;;;8.40;7.55;;;1.90;99.90;;;;;;4883804;29;20555;-71
2021/01/06 16:49:35;;;;;;;8.93;7.45;;;1.90;99.90;;;;;;4886971;29;20207;-71
2021/01/06 16:52:07;;;;;;;11.25;9.35;;;1.90;99.90;;;;;;4880742;29;20231;-71
2021/01/06 16:54:36;;;;;;;12.60;7.88;;;1.80;99.90;;;;;;4891684;29;20204;-71
2021/01/06 16:57:05;;;;;;;7.63;6.63;;;1.80;99.90;;;;;;4883913;29;20601;-71
2021/01/06 16:59:35;;;;;;;9.65;8.43;;;1.80;99.90;;;;;;4892955;29;20287;-71
2021/01/06 17:02:04;;;;;;;14.25;9.60;;;1.80;99.90;;;;;;4889798;29;20673;-71
2021/01/06 17:04:34;;;;;;;8.70;7.68;;;1.80;99.90;;;;;;4880205;29;20208;-71
2021/01/06 17:07:00;;;;;;;9.43;7.68;;;1.80;99.90;;;;;;4884055;29;20223;-72
2021/01/06 17:09:29;;;;;;;10.90;8.60;;;1.80;99.90;;;;;;4895982;29;20263;-72
2021/01/06 17:11:58;;;;;;;11.40;8.02;;;1.80;99.90;;;;;;4895853;29;20364;-71
2021/01/06 17:14:25;;;;;;;12.13;9.55;;;1.70;99.90;;;;;;4897662;29;20219;-71
2021/01/06 17:16:54;;;;;;;9.75;8.68;;;1.80;99.90;;;;;;4897672;29;20207;-72
2021/01/06 17:19:21;;;;;;;10.32;7.88;;;1.80;99.90;;;;;;4897738;29;20211;-71
2021/01/06 17:21:51;;;;;;;7.70;6.97;;;1.80;99.90;;;;;;4897343;29;20228;-71
2021/01/06 17:24:24;;;;;;;8.10;6.28;;;1.80;99.90;;;;;;4897305;29;20231;-72
2021/01/06 17:26:56;;;;;;;11.65;8.88;;;1.70;99.90;;;;;;4897084;29;20688;-72
2021/01/06 17:29:24;;;;;;;8.18;7.38;;;1.70;99.90;;;;;;4897348;29;20220;-72
2021/01/06 17:32:06;;;;;;;8.32;7.13;;;1.70;99.90;;;;;;4896834;29;20239;-74
2021/01/06 17:34:32;;;;;;;8.52;7.72;;;1.70;99.90;;;;;;4897379;29;20219;-74
2021/01/06 17:36:58;;;;;;;9.70;8.57;;;1.70;99.90;;;;;;4897463;29;20211;-72
2021/01/06 17:39:34;;;;;;;9.03;8.00;;;1.70;99.90;;;;;;4896997;29;20530;-72
2021/01/06 17:42:01;;;;;;;10.13;6.72;;;1.70;99.90;;;;;;4896178;29;20557;-71
2021/01/06 17:44:27;;;;;;;9.43;7.85;;;1.70;99.90;;;;;;4896976;29;20219;-70
2021/01/06 17:46:54;;;;;;;10.35;7.18;;;1.70;99.90;;;;;;4896248;29;20215;-71
2021/01/06 17:49:21;;;;;;;7.80;6.25;;;1.70;99.90;;;;;;4893373;29;20362;-74
2021/01/06 17:51:48;;;;;;;6.40;5.80;;;1.70;99.90;;;;;;4895474;29;20235;-74
2021/01/06 17:54:15;;;;;;;13.65;9.45;;;1.70;99.90;;;;;;4896997;29;20207;-74
2021/01/06 17:56:42;;;;;;;8.85;6.97;;;1.70;99.90;;;;;;4886700;29;20217;-74
2021/01/06 17:59:09;;;;;;;12.43;7.63;;;1.70;99.90;;;;;;4890673;29;20672;-75
2021/01/06 18:01:35;;;;;;;9.13;7.75;;;1.70;99.90;;;;;;4895707;29;20286;-75
2021/01/06 18:04:02;;;;;;;11.15;9.20;;;1.70;99.90;;;;;;4895685;29;20680;-76
2021/01/06 18:06:30;;;;;;;8.70;7.68;;;1.70;99.90;;;;;;4898361;29;20239;-75
2021/01/06 18:09:00;;;;;;;9.43;6.93;;;1.70;99.90;;;;;;4897917;29;20214;-76
2021/01/06 18:11:27;;;;;;;8.00;7.20;;;1.70;99.90;;;;;;4900976;29;20235;-75
2021/01/06 18:13:59;;;;;;;9.95;7.43;;;1.70;99.90;;;;;;4884672;29;20236;-74
2021/01/06 18:16:25;;;;;;;8.75;7.00;;;1.70;99.90;;;;;;4892884;29;20207;-71
2021/01/06 18:18:51;;;;;;;10.60;8.65;;;1.70;99.90;;;;;;4875106;29;20223;-76
2021/01/06 18:21:36;;;;;;;8.27;7.30;;;1.70;99.90;;;;;;4876837;29;20228;-76
2021/01/06 18:24:16;;;;;;;12.07;8.70;;;1.70;99.90;;;;;;4882281;29;20287;-73
2021/01/06 18:26:57;;;;;;;10.40;7.72;;;1.70;99.90;;;;;;4888874;29;20565;-73
2021/01/06 18:29:32;;;;;;;10.07;7.57;;;1.70;99.90;;;;;;4885620;29;20904;-73
2021/01/06 18:32:13;;;;;;;14.50;9.80;;;1.70;99.90;;;;;;4882789;29;20287;-74
2021/01/06 18:34:40;;;;;;;13.13;9.40;;;1.70;99.90;;;;;;4880075;29;20203;-69
2021/01/06 18:37:14;;;;;;;8.13;7.40;;;1.70;99.90;;;;;;4882772;29;20667;-68